Zarautz, Spain
Current Conditions -  °F | °C
As of 9:30 PM on Monday 24 Nov 2014 (Local Time) from LESO Reporting Station
Drizzle Drizzle  
Wind Chill: 61°   Ceiling: 1800
Heat Index: 61°   Visibility: 6mi
Dew Point: 57°   Wind: 1mph
Humidity: 88%   Direction: NA
Pressure: 30.12"   Gusts: NA
Location:  43.28°N, 2.17°W
Report Text: LESO 242030Z VRB01KT 9999 -DZ FEW007 SCT012 BKN018 16/14 Q1020
Loading
Personal Weather Stations






























Interactive Weather Map New forecast layout! Learn more

10-Day Weather Forecast

Advertisements
Track Severe Weather on mobile